createdAt,value
2018-12-22T00:01:17.988Z,11.24
2018-12-22T00:03:46.135Z,11.18
2018-12-22T00:06:14.306Z,11.08
2018-12-22T00:08:42.522Z,11.18
2018-12-22T00:11:10.667Z,11.20
2018-12-22T00:13:38.979Z,11.17
2018-12-22T00:16:07.138Z,11.24
2018-12-22T00:18:35.606Z,11.24
2018-12-22T00:21:03.765Z,11.27
2018-12-22T00:23:31.897Z,11.27
2018-12-22T00:26:00.118Z,11.16
2018-12-22T00:28:28.374Z,11.15
2018-12-22T00:30:56.521Z,11.06
2018-12-22T00:33:24.702Z,11.07
2018-12-22T00:35:52.846Z,11.04
2018-12-22T00:38:21.070Z,10.97
2018-12-22T00:40:49.223Z,10.99
2018-12-22T00:43:17.379Z,11.01
2018-12-22T00:45:45.531Z,11.03
2018-12-22T00:48:14.728Z,10.97
2018-12-22T00:50:42.859Z,11.08
2018-12-22T00:53:11.078Z,10.92
2018-12-22T00:55:39.276Z,10.93
2018-12-22T00:58:07.410Z,10.95
2018-12-22T01:00:35.546Z,10.91
2018-12-22T01:03:03.750Z,10.92
2018-12-22T01:05:31.901Z,10.94
2018-12-22T01:08:00.041Z,10.83
2018-12-22T01:10:28.194Z,10.73
2018-12-22T01:12:56.373Z,10.73
2018-12-22T01:15:24.681Z,10.72
2018-12-22T01:17:52.797Z,10.77
2018-12-22T01:20:21.046Z,10.73
2018-12-22T01:22:49.169Z,10.79
2018-12-22T01:25:17.327Z,10.78
2018-12-22T01:27:45.910Z,10.77
2018-12-22T01:30:14.104Z,10.76
2018-12-22T01:32:42.365Z,10.72
2018-12-22T01:35:10.658Z,10.79
2018-12-22T01:37:39.010Z,10.74
2018-12-22T01:40:07.375Z,10.73
2018-12-22T01:42:35.510Z,10.74
2018-12-22T01:45:03.999Z,10.71
2018-12-22T01:47:32.306Z,10.69
2018-12-22T01:50:00.442Z,10.71
2018-12-22T01:52:28.559Z,10.78
2018-12-22T01:54:56.706Z,10.78
2018-12-22T01:57:24.869Z,10.80
2018-12-22T01:59:53.022Z,10.72
2018-12-22T02:02:21.257Z,10.72
2018-12-22T02:04:49.389Z,10.70
2018-12-22T02:07:17.526Z,10.72
2018-12-22T02:09:45.659Z,10.69
2018-12-22T02:12:13.850Z,10.65
2018-12-22T02:14:42.011Z,10.69
2018-12-22T02:17:10.144Z,10.77
2018-12-22T02:19:38.426Z,10.71
2018-12-22T02:22:06.661Z,10.63
2018-12-22T02:24:34.878Z,10.71
2018-12-22T02:27:03.002Z,10.65
2018-12-22T02:29:31.167Z,10.74
2018-12-22T02:31:59.327Z,10.75
2018-12-22T02:34:27.523Z,10.79
2018-12-22T02:36:56.007Z,10.76
2018-12-22T02:39:24.165Z,10.72
2018-12-22T02:41:52.277Z,10.71
2018-12-22T02:44:20.474Z,10.70
2018-12-22T02:46:48.629Z,10.69
2018-12-22T02:49:16.804Z,10.67
2018-12-22T02:51:44.933Z,10.71
2018-12-22T02:54:13.071Z,10.59
2018-12-22T02:56:41.216Z,10.54
2018-12-22T02:59:09.353Z,10.66
2018-12-22T03:01:37.679Z,10.72
2018-12-22T03:04:05.893Z,10.71
2018-12-22T03:06:34.027Z,10.72
2018-12-22T03:09:02.243Z,10.82
2018-12-22T03:11:30.422Z,10.80
2018-12-22T03:13:58.630Z,10.81
2018-12-22T03:16:26.861Z,10.75
2018-12-22T03:18:55.202Z,10.74
2018-12-22T03:21:23.505Z,10.73
2018-12-22T03:23:51.657Z,10.72
2018-12-22T03:26:19.899Z,10.69
2018-12-22T03:28:48.006Z,10.71
2018-12-22T03:31:16.162Z,10.73
2018-12-22T03:33:44.391Z,10.70
2018-12-22T03:36:12.591Z,10.72
2018-12-22T03:38:40.704Z,10.66
2018-12-22T03:41:08.930Z,10.68
2018-12-22T03:43:37.158Z,10.69
2018-12-22T03:46:05.311Z,10.71
2018-12-22T03:48:33.505Z,10.82
2018-12-22T03:51:01.718Z,10.90
2018-12-22T03:53:30.935Z,11.04
2018-12-22T03:55:59.095Z,11.14
2018-12-22T03:58:27.269Z,11.07
2018-12-22T04:00:55.392Z,10.98
2018-12-22T04:03:23.636Z,11.06
2018-12-22T04:05:51.854Z,11.09
2018-12-22T04:08:19.985Z,11.04
2018-12-22T04:10:48.147Z,11.13
2018-12-22T04:13:16.469Z,11.17
2018-12-22T04:15:44.743Z,11.25
2018-12-22T04:18:12.989Z,11.37
2018-12-22T04:20:41.130Z,11.44
2018-12-22T04:23:09.338Z,11.57
2018-12-22T04:25:37.500Z,11.63
2018-12-22T04:28:05.717Z,11.77
2018-12-22T04:30:33.851Z,11.72
2018-12-22T04:33:01.995Z,11.86
2018-12-22T04:35:30.150Z,11.89
2018-12-22T04:37:58.264Z,11.83
2018-12-22T04:40:26.538Z,11.90
2018-12-22T04:42:54.734Z,11.79
2018-12-22T04:45:23.056Z,11.76
2018-12-22T04:47:51.276Z,11.69
2018-12-22T04:50:19.430Z,11.58
2018-12-22T04:52:47.559Z,11.49
2018-12-22T04:55:15.817Z,11.48
2018-12-22T04:57:46.239Z,11.54
2018-12-22T05:00:14.495Z,11.51
2018-12-22T05:02:42.777Z,11.43
2018-12-22T05:05:11.124Z,11.37
2018-12-22T05:07:39.417Z,11.33
2018-12-22T05:10:08.196Z,11.29
2018-12-22T05:12:36.330Z,11.22
2018-12-22T05:15:04.898Z,11.22
2018-12-22T05:17:33.239Z,11.24
2018-12-22T05:20:01.429Z,11.15
2018-12-22T05:22:29.683Z,10.99
2018-12-22T05:24:57.788Z,11.10
2018-12-22T05:27:25.938Z,11.01
2018-12-22T05:29:54.453Z,11.01
2018-12-22T05:32:22.740Z,10.93
2018-12-22T05:34:50.981Z,10.95
2018-12-22T05:37:19.353Z,10.89
2018-12-22T05:42:22.442Z,10.96
2018-12-22T05:44:50.588Z,11.09
2018-12-22T05:47:18.822Z,11.11
2018-12-22T05:49:46.968Z,11.12
2018-12-22T05:52:17.161Z,11.01
2018-12-22T05:54:45.276Z,11.08
2018-12-22T05:57:13.402Z,11.04
2018-12-22T05:59:41.579Z,10.99
2018-12-22T06:02:09.712Z,10.88
2018-12-22T06:04:37.882Z,10.86
2018-12-22T06:07:06.226Z,10.79
2018-12-22T06:09:34.389Z,10.63
2018-12-22T06:12:02.641Z,10.47
2018-12-22T06:14:30.814Z,10.39
2018-12-22T06:16:59.065Z,10.38
2018-12-22T06:19:27.274Z,10.32
2018-12-22T06:21:57.001Z,10.22
2018-12-22T06:24:25.585Z,10.24
2018-12-22T06:26:53.777Z,10.14
2018-12-22T06:29:21.974Z,10.08
2018-12-22T06:31:50.387Z,10.04
2018-12-22T06:34:18.530Z,10.14
2018-12-22T06:36:46.915Z,10.16
2018-12-22T06:39:15.040Z,10.11
2018-12-22T06:41:43.238Z,10.09
2018-12-22T06:44:11.426Z,10.13
2018-12-22T06:46:39.651Z,10.19
2018-12-22T06:49:07.779Z,10.26
2018-12-22T06:51:36.009Z,10.18
2018-12-22T06:54:04.259Z,10.09
2018-12-22T06:56:32.429Z,10.06
2018-12-22T06:59:00.571Z,10.10
2018-12-22T07:01:28.813Z,10.08
2018-12-22T07:03:57.967Z,10.12
2018-12-22T07:06:26.107Z,10.16
2018-12-22T07:08:54.315Z,10.18
2018-12-22T07:11:22.454Z,10.29
2018-12-22T07:13:50.567Z,10.26
2018-12-22T07:16:18.719Z,10.28
2018-12-22T07:18:46.911Z,10.29
2018-12-22T07:21:15.130Z,10.27
2018-12-22T07:23:43.397Z,10.15
2018-12-22T07:26:11.525Z,10.08
2018-12-22T07:28:39.659Z,9.70
2018-12-22T07:31:07.786Z,9.37
2018-12-22T07:33:35.922Z,9.29
2018-12-22T07:36:04.245Z,9.19
2018-12-22T07:38:32.376Z,9.28
2018-12-22T07:41:00.489Z,9.26
2018-12-22T07:43:29.499Z,9.26
2018-12-22T07:45:57.717Z,9.18
2018-12-22T07:48:25.894Z,9.20
2018-12-22T07:50:54.019Z,9.22
2018-12-22T07:53:22.120Z,9.23
2018-12-22T07:55:50.244Z,9.32
2018-12-22T07:58:18.385Z,9.30
2018-12-22T08:00:46.731Z,9.33
2018-12-22T08:03:14.891Z,9.33
2018-12-22T08:05:43.215Z,9.49
2018-12-22T08:08:11.346Z,9.64
2018-12-22T08:10:39.467Z,9.68
2018-12-22T08:13:07.623Z,9.82
2018-12-22T08:15:35.831Z,9.93
2018-12-22T08:18:04.030Z,10.03
2018-12-22T08:20:32.166Z,10.13
2018-12-22T08:23:01.307Z,10.21
2018-12-22T08:25:29.469Z,10.31
2018-12-22T08:27:57.606Z,10.34
2018-12-22T08:30:25.761Z,10.42
2018-12-22T08:32:53.879Z,10.46
2018-12-22T08:35:22.024Z,10.44
2018-12-22T08:37:50.279Z,10.43
2018-12-22T08:40:18.482Z,10.50
2018-12-22T08:42:46.689Z,10.46
2018-12-22T08:45:14.957Z,10.59
2018-12-22T08:47:43.113Z,10.61
2018-12-22T08:50:11.389Z,10.62
2018-12-22T08:52:39.611Z,10.59
2018-12-22T08:55:08.154Z,10.62
2018-12-22T08:57:37.878Z,10.50
2018-12-22T09:00:09.012Z,10.46
2018-12-22T09:02:37.139Z,10.43
2018-12-22T09:05:05.390Z,10.39
2018-12-22T09:07:33.532Z,10.40
2018-12-22T09:10:01.748Z,10.45
2018-12-22T09:12:30.148Z,10.44
2018-12-22T09:14:58.285Z,10.42
2018-12-22T09:17:26.789Z,10.41
2018-12-22T09:19:54.985Z,10.35
2018-12-22T09:22:23.214Z,10.39
2018-12-22T09:24:51.333Z,10.38
2018-12-22T09:27:19.575Z,10.37
2018-12-22T09:29:47.722Z,10.40
2018-12-22T09:32:15.852Z,10.41
2018-12-22T09:34:44.080Z,10.40
2018-12-22T09:37:12.197Z,10.38
2018-12-22T09:39:40.325Z,10.37
2018-12-22T09:42:08.432Z,10.39
2018-12-22T09:44:36.653Z,10.35
2018-12-22T09:47:05.255Z,10.39
2018-12-22T09:49:33.365Z,10.48
2018-12-22T09:52:01.506Z,10.47
2018-12-22T09:54:29.623Z,10.50
2018-12-22T09:56:57.766Z,10.54
2018-12-22T09:59:26.498Z,10.56
2018-12-22T10:01:54.633Z,10.57
2018-12-22T10:04:22.778Z,10.62
2018-12-22T10:06:50.918Z,10.66
2018-12-22T10:09:19.119Z,10.73
2018-12-22T10:11:47.314Z,10.70
2018-12-22T10:14:15.431Z,10.74
2018-12-22T10:16:43.560Z,10.83
2018-12-22T10:19:11.768Z,10.83
2018-12-22T10:21:39.917Z,10.86
2018-12-22T10:24:08.057Z,10.95
2018-12-22T10:26:37.179Z,11.04
2018-12-22T10:29:06.346Z,11.12
2018-12-22T10:31:34.465Z,11.12
2018-12-22T10:34:02.948Z,11.13
2018-12-22T10:36:31.173Z,11.14
2018-12-22T10:38:59.311Z,11.14
2018-12-22T10:41:27.495Z,11.18
2018-12-22T10:43:55.689Z,11.15
2018-12-22T10:46:23.841Z,11.15
2018-12-22T10:48:51.982Z,11.19
2018-12-22T10:51:24.192Z,11.13
2018-12-22T10:53:50.420Z,10.77
2018-12-22T10:56:18.717Z,10.61
2018-12-22T10:58:47.048Z,10.65
2018-12-22T11:01:15.369Z,10.64
2018-12-22T11:03:43.811Z,10.65
2018-12-22T11:06:11.923Z,10.58
2018-12-22T11:08:40.090Z,10.50
2018-12-22T11:11:08.247Z,10.49
2018-12-22T11:13:36.465Z,10.40
2018-12-22T11:16:04.770Z,10.41
2018-12-22T11:18:32.944Z,10.50
2018-12-22T11:21:01.141Z,10.55
2018-12-22T11:23:29.339Z,10.53
2018-12-22T11:25:57.538Z,10.48
2018-12-22T11:28:25.879Z,10.40
2018-12-22T11:30:54.534Z,10.29
2018-12-22T11:33:22.865Z,10.09
2018-12-22T11:35:51.102Z,9.88
2018-12-22T11:38:19.329Z,9.79
2018-12-22T11:40:47.449Z,9.84
2018-12-22T11:43:15.578Z,9.84
2018-12-22T11:45:43.698Z,9.86
2018-12-22T11:48:23.834Z,9.99
2018-12-22T11:50:51.976Z,10.19
2018-12-22T11:53:20.233Z,10.24
2018-12-22T11:55:48.349Z,10.19
2018-12-22T11:58:16.596Z,10.38
2018-12-22T12:00:44.724Z,10.33
2018-12-22T12:03:13.126Z,10.23
2018-12-22T12:05:41.381Z,10.27
2018-12-22T12:08:09.774Z,10.38
2018-12-22T12:10:38.022Z,10.52
2018-12-22T12:13:06.257Z,10.61
2018-12-22T12:15:41.302Z,10.88
2018-12-22T12:20:21.532Z,11.08
2018-12-22T12:22:49.682Z,11.21
2018-12-22T12:25:18.040Z,11.15
2018-12-22T12:27:46.262Z,10.96
2018-12-22T12:30:14.412Z,10.71
2018-12-22T12:32:42.547Z,10.65
2018-12-22T12:35:10.678Z,10.55
2018-12-22T12:37:38.869Z,10.47
2018-12-22T12:40:10.145Z,10.41
2018-12-22T12:42:38.490Z,10.33
2018-12-22T12:45:08.935Z,10.13
2018-12-22T12:47:37.344Z,9.77
2018-12-22T12:50:07.463Z,9.58
2018-12-22T12:52:35.760Z,9.36
2018-12-22T12:55:04.101Z,9.26
2018-12-22T12:57:32.229Z,9.22
2018-12-22T13:00:00.424Z,9.22
2018-12-22T13:02:28.898Z,9.27
2018-12-22T13:04:57.047Z,9.29
2018-12-22T13:07:25.309Z,9.28
2018-12-22T13:09:53.552Z,9.28
2018-12-22T13:12:25.172Z,9.31
2018-12-22T13:14:53.334Z,9.34
2018-12-22T13:17:21.541Z,9.37
2018-12-22T13:19:49.675Z,9.25
2018-12-22T13:22:18.070Z,9.17
2018-12-22T13:24:46.343Z,9.16
2018-12-22T13:27:14.486Z,9.15
2018-12-22T13:29:42.677Z,9.11
2018-12-22T13:32:10.832Z,9.10
2018-12-22T13:34:39.018Z,9.11
2018-12-22T13:37:07.175Z,9.13
2018-12-22T13:39:35.309Z,9.22
2018-12-22T13:42:03.578Z,9.33
2018-12-22T13:44:31.746Z,9.50
2018-12-22T13:46:59.932Z,9.61
2018-12-22T13:49:28.858Z,9.59
2018-12-22T13:51:57.051Z,9.52
2018-12-22T13:54:26.274Z,9.58
2018-12-22T13:56:54.860Z,9.62
2018-12-22T13:59:23.149Z,9.66
2018-12-22T14:01:57.702Z,9.70
2018-12-22T14:04:25.908Z,9.74
2018-12-22T14:06:54.123Z,9.77
2018-12-22T14:09:22.297Z,9.80
2018-12-22T14:11:50.491Z,9.79
2018-12-22T14:14:25.131Z,9.71
2018-12-22T14:16:57.432Z,9.68
2018-12-22T14:19:25.666Z,9.64
2018-12-22T14:21:54.138Z,9.66
2018-12-22T14:24:29.510Z,9.65
2018-12-22T14:26:57.636Z,9.65
2018-12-22T14:29:25.962Z,9.68
2018-12-22T14:31:54.069Z,9.63
2018-12-22T14:34:28.438Z,9.65
2018-12-22T14:36:56.593Z,9.65
2018-12-22T14:39:24.906Z,9.61
2018-12-22T14:41:53.243Z,9.58
2018-12-22T14:44:21.412Z,9.61
2018-12-22T14:46:49.641Z,9.54
2018-12-22T14:49:17.875Z,9.51
2018-12-22T14:51:46.083Z,9.41
2018-12-22T14:54:14.778Z,9.39
2018-12-22T14:56:45.718Z,9.42
2018-12-22T14:59:17.319Z,9.45
2018-12-22T15:01:50.961Z,9.47
2018-12-22T15:04:19.070Z,9.50
2018-12-22T15:06:47.294Z,9.49
2018-12-22T15:09:15.558Z,9.53
2018-12-22T15:11:43.779Z,9.58
2018-12-22T15:14:11.918Z,9.58
2018-12-22T15:16:40.049Z,9.47
2018-12-22T15:19:08.215Z,9.53
2018-12-22T15:21:36.705Z,9.49
2018-12-22T15:24:05.490Z,9.46
2018-12-22T15:26:33.670Z,9.38
2018-12-22T15:29:01.782Z,9.24
2018-12-22T15:31:29.936Z,9.12
2018-12-22T15:33:58.120Z,9.06
2018-12-22T15:36:26.363Z,8.98
2018-12-22T15:38:54.619Z,8.96
2018-12-22T15:41:22.756Z,8.97
2018-12-22T15:43:51.027Z,8.91
2018-12-22T15:46:19.266Z,8.84
2018-12-22T15:48:47.609Z,8.80
2018-12-22T15:51:16.282Z,8.79
2018-12-22T15:53:44.440Z,8.72
2018-12-22T15:56:12.577Z,8.73
2018-12-22T15:58:40.690Z,8.61
2018-12-22T16:01:08.871Z,8.61
2018-12-22T16:03:37.029Z,8.55
2018-12-22T16:06:05.218Z,8.53
2018-12-22T16:08:33.349Z,8.57
2018-12-22T16:11:02.192Z,8.60
2018-12-22T16:13:30.417Z,8.61
2018-12-22T16:15:58.617Z,8.66
2018-12-22T16:18:26.990Z,8.67
2018-12-22T16:20:55.128Z,8.69
2018-12-22T16:23:23.407Z,8.69
2018-12-22T16:25:51.538Z,8.65
2018-12-22T16:28:22.607Z,8.64
2018-12-22T16:30:53.782Z,8.64
2018-12-22T16:33:22.827Z,8.57
2018-12-22T16:35:51.387Z,8.54
2018-12-22T16:38:19.794Z,8.57
2018-12-22T16:40:47.920Z,8.48
2018-12-22T16:43:17.973Z,8.47
2018-12-22T16:45:48.407Z,8.46
2018-12-22T16:48:18.620Z,8.60
2018-12-22T16:50:47.474Z,8.54
2018-12-22T16:53:16.212Z,8.58
2018-12-22T16:55:44.466Z,8.57
2018-12-22T16:58:30.761Z,8.78
2018-12-22T17:01:13.962Z,8.78
2018-12-22T17:03:42.141Z,8.84
2018-12-22T17:06:11.170Z,8.96
2018-12-22T17:08:39.397Z,9.07
2018-12-22T17:11:09.819Z,9.14
2018-12-22T17:13:38.005Z,9.22
2018-12-22T17:16:06.580Z,9.25
2018-12-22T17:18:34.809Z,9.28
2018-12-22T17:21:23.226Z,9.32
2018-12-22T17:23:58.910Z,9.36
2018-12-22T17:26:29.323Z,9.42
2018-12-22T17:28:57.632Z,9.42
2018-12-22T17:31:28.731Z,9.33
2018-12-22T17:33:56.961Z,9.35
2018-12-22T17:36:25.511Z,9.31
2018-12-22T17:38:54.069Z,9.21
2018-12-22T17:41:22.176Z,9.20
2018-12-22T17:43:50.715Z,9.16
2018-12-22T17:46:19.959Z,9.19
2018-12-22T17:48:48.180Z,9.21
2018-12-22T17:51:16.398Z,9.16
2018-12-22T17:53:44.542Z,9.16
2018-12-22T17:56:12.792Z,9.14
2018-12-22T17:58:41.106Z,9.12
2018-12-22T18:01:09.242Z,9.09
2018-12-22T18:03:38.169Z,9.05
2018-12-22T18:06:06.337Z,9.07
2018-12-22T18:08:34.564Z,9.08
2018-12-22T18:11:02.749Z,9.06
2018-12-22T18:13:30.938Z,9.02
2018-12-22T18:15:59.160Z,9.02
2018-12-22T18:18:27.341Z,9.10
2018-12-22T18:20:55.491Z,9.14
2018-12-22T18:23:23.725Z,9.25
2018-12-22T18:25:52.049Z,9.29
2018-12-22T18:28:20.242Z,9.29
2018-12-22T18:30:48.538Z,9.18
2018-12-22T18:33:16.657Z,9.16
2018-12-22T18:35:44.798Z,9.04
2018-12-22T18:38:13.147Z,9.05
2018-12-22T18:40:42.324Z,9.00
2018-12-22T18:43:10.453Z,8.93
2018-12-22T18:45:38.610Z,8.96
2018-12-22T18:48:06.868Z,8.98
2018-12-22T18:50:35.608Z,9.01
2018-12-22T18:53:04.059Z,9.02
2018-12-22T18:55:32.896Z,9.14
2018-12-22T18:58:02.553Z,9.28
2018-12-22T19:00:33.244Z,9.41
2018-12-22T19:03:01.759Z,9.41
2018-12-22T19:05:30.001Z,9.43
2018-12-22T19:08:06.226Z,9.43
2018-12-22T19:10:38.026Z,9.45
2018-12-22T19:13:06.629Z,9.50
2018-12-22T19:15:34.746Z,9.52
2018-12-22T19:18:02.888Z,9.47
2018-12-22T19:20:39.410Z,9.49
2018-12-22T19:23:08.269Z,9.33
2018-12-22T19:25:36.578Z,9.29
2018-12-22T19:28:04.707Z,9.29
2018-12-22T19:30:33.195Z,9.20
2018-12-22T19:33:01.328Z,9.14
2018-12-22T19:35:29.545Z,9.12
2018-12-22T19:37:57.677Z,9.03
2018-12-22T19:40:25.959Z,8.96
2018-12-22T19:42:54.978Z,8.85
2018-12-22T19:45:23.503Z,8.79
2018-12-22T19:47:51.712Z,8.77
2018-12-22T19:50:19.842Z,8.75
2018-12-22T19:52:47.958Z,8.73
2018-12-22T19:55:16.158Z,8.75
2018-12-22T19:57:44.295Z,8.79
2018-12-22T20:00:12.520Z,8.84
2018-12-22T20:02:40.638Z,8.90
2018-12-22T20:05:09.011Z,8.90
2018-12-22T20:07:37.267Z,8.97
2018-12-22T20:10:05.481Z,8.98
2018-12-22T20:12:33.841Z,9.00
2018-12-22T20:15:02.166Z,8.93
2018-12-22T20:17:30.338Z,8.73
2018-12-22T20:19:58.486Z,8.63
2018-12-22T20:22:26.641Z,8.53
2018-12-22T20:24:54.769Z,8.44
2018-12-22T20:27:22.911Z,8.42
2018-12-22T20:29:51.206Z,8.36
2018-12-22T20:32:19.325Z,8.30
2018-12-22T20:34:47.492Z,8.20
2018-12-22T20:37:15.617Z,8.15
2018-12-22T20:39:43.934Z,8.14
2018-12-22T20:42:12.087Z,8.11
2018-12-22T20:44:40.702Z,8.15
2018-12-22T20:47:08.818Z,8.16
2018-12-22T20:49:36.940Z,8.13
2018-12-22T20:52:05.934Z,8.06
2018-12-22T20:54:34.131Z,8.11
2018-12-22T20:57:02.313Z,8.14
2018-12-22T20:59:30.468Z,8.16
2018-12-22T21:01:58.813Z,8.20
2018-12-22T21:04:27.971Z,8.19
2018-12-22T21:06:56.300Z,8.20
2018-12-22T21:09:24.481Z,8.18
2018-12-22T21:11:52.706Z,8.20
2018-12-22T21:14:20.850Z,8.15
2018-12-22T21:16:49.223Z,8.13
2018-12-22T21:19:17.443Z,8.09
2018-12-22T21:21:45.728Z,8.13
2018-12-22T21:24:14.104Z,8.20
2018-12-22T21:26:42.237Z,8.25
2018-12-22T21:29:10.372Z,8.32
2018-12-22T21:31:38.527Z,8.33
2018-12-22T21:34:06.686Z,8.43
2018-12-22T21:36:34.978Z,8.58
2018-12-22T21:39:04.544Z,8.55
2018-12-22T21:41:33.046Z,8.70
2018-12-22T21:44:01.161Z,8.88
2018-12-22T21:46:29.966Z,9.04
2018-12-22T21:48:58.328Z,9.21
2018-12-22T21:51:26.515Z,9.20
2018-12-22T21:53:56.207Z,9.23
2018-12-22T21:56:24.681Z,9.26
2018-12-22T21:58:52.925Z,9.17
2018-12-22T22:02:41.590Z,9.17
2018-12-22T22:05:09.851Z,9.16
2018-12-22T22:07:37.961Z,9.05
2018-12-22T22:10:06.606Z,8.97
2018-12-22T22:12:34.937Z,8.98
2018-12-22T22:15:03.925Z,8.93
2018-12-22T22:17:32.549Z,8.97
2018-12-22T22:20:00.842Z,9.08
2018-12-22T22:22:28.979Z,9.10
2018-12-22T22:24:57.105Z,9.16
2018-12-22T22:27:25.841Z,9.18
2018-12-22T22:29:53.969Z,9.07
2018-12-22T22:32:23.067Z,9.08
2018-12-22T22:34:51.381Z,9.01
2018-12-22T22:37:19.967Z,9.03
2018-12-22T22:39:48.746Z,8.83
2018-12-22T22:42:17.667Z,8.81
2018-12-22T22:44:46.130Z,8.91
2018-12-22T22:47:14.366Z,9.01
2018-12-22T22:49:42.567Z,9.04
2018-12-22T22:52:10.759Z,9.09
2018-12-22T22:54:38.972Z,9.11
2018-12-22T22:57:07.155Z,9.12
2018-12-22T22:59:35.462Z,9.11
2018-12-22T23:02:03.786Z,9.14
2018-12-22T23:04:32.701Z,9.14
2018-12-22T23:07:00.883Z,9.20
2018-12-22T23:09:29.326Z,9.14
2018-12-22T23:11:57.815Z,9.04
2018-12-22T23:14:26.298Z,9.05
2018-12-22T23:16:54.681Z,9.05
2018-12-22T23:19:23.407Z,9.07
2018-12-22T23:21:51.593Z,9.06
2018-12-22T23:24:19.958Z,9.02
2018-12-22T23:26:48.402Z,8.97
2018-12-22T23:29:17.067Z,9.00
2018-12-22T23:31:45.305Z,9.02
2018-12-22T23:34:13.448Z,9.02
2018-12-22T23:36:41.606Z,8.93
2018-12-22T23:39:10.289Z,8.98
2018-12-22T23:41:38.730Z,8.99
2018-12-22T23:44:07.186Z,9.07
2018-12-22T23:46:35.449Z,9.02
2018-12-22T23:49:04.495Z,9.00
2018-12-22T23:51:32.621Z,9.04
2018-12-22T23:54:00.756Z,9.07
2018-12-22T23:56:28.964Z,8.99
2018-12-22T23:58:57.119Z,8.93
